createdAt,value
2017-10-25T00:02:22.345Z,21.77
2017-10-25T00:04:49.028Z,23.20
2017-10-25T00:07:15.673Z,21.70
2017-10-25T00:09:42.357Z,25.57
2017-10-25T00:12:09.002Z,22.43
2017-10-25T00:14:35.672Z,24.93
2017-10-25T00:17:02.338Z,24.63
2017-10-25T00:19:28.997Z,20.30
2017-10-25T00:21:55.670Z,28.70
2017-10-25T00:24:22.321Z,26.10
2017-10-25T00:26:48.992Z,24.13
2017-10-25T00:29:15.661Z,18.97
2017-10-25T00:31:42.305Z,18.40
2017-10-25T00:34:08.969Z,25.20
2017-10-25T00:36:35.613Z,19.57
2017-10-25T00:39:02.275Z,24.87
2017-10-25T00:41:28.940Z,31.80
2017-10-25T00:43:55.594Z,19.70
2017-10-25T00:46:22.276Z,22.70
2017-10-25T00:48:48.972Z,23.13
2017-10-25T00:51:15.642Z,24.60
2017-10-25T00:53:42.314Z,24.50
2017-10-25T00:56:08.968Z,20.77
2017-10-25T00:58:35.640Z,21.33
2017-10-25T01:01:02.325Z,26.10
2017-10-25T01:03:28.992Z,23.20
2017-10-25T01:05:55.637Z,20.20
2017-10-25T01:08:22.332Z,19.60
2017-10-25T01:10:48.989Z,25.37
2017-10-25T01:13:15.640Z,19.80
2017-10-25T01:15:42.330Z,24.50
2017-10-25T01:18:08.988Z,27.33
2017-10-25T01:20:35.681Z,21.63
2017-10-25T01:23:02.326Z,22.30
2017-10-25T01:25:28.977Z,39.37
2017-10-25T01:27:55.649Z,28.03
2017-10-25T01:30:22.315Z,32.63
2017-10-25T01:32:48.975Z,29.40
2017-10-25T01:35:15.673Z,24.00
2017-10-25T01:37:42.363Z,27.60
2017-10-25T01:40:09.012Z,29.47
2017-10-25T01:42:35.685Z,30.97
2017-10-25T01:45:02.348Z,31.77
2017-10-25T01:47:29.044Z,27.97
2017-10-25T01:49:55.696Z,33.17
2017-10-25T01:52:22.336Z,30.60
2017-10-25T01:54:49.131Z,31.57
2017-10-25T01:57:15.784Z,45.47
2017-10-25T01:59:42.437Z,26.80
2017-10-25T02:02:09.132Z,27.33
2017-10-25T02:04:35.777Z,34.70
2017-10-25T02:07:02.454Z,29.67
2017-10-25T02:09:29.128Z,34.67
2017-10-25T02:11:55.772Z,31.60
2017-10-25T02:14:22.447Z,33.00
2017-10-25T02:16:49.104Z,31.53
2017-10-25T02:19:15.785Z,41.43
2017-10-25T02:21:42.509Z,31.40
2017-10-25T02:24:09.174Z,30.60
2017-10-25T02:26:35.859Z,29.67
2017-10-25T02:29:02.539Z,35.37
2017-10-25T02:31:29.455Z,28.40
2017-10-25T02:33:56.111Z,34.87
2017-10-25T02:36:22.759Z,28.60
2017-10-25T02:38:49.432Z,31.97
2017-10-25T02:41:16.078Z,27.10
2017-10-25T02:43:42.762Z,31.47
2017-10-25T02:46:09.413Z,27.37
2017-10-25T02:48:36.070Z,32.90
2017-10-25T02:51:02.764Z,33.37
2017-10-25T02:53:29.416Z,33.40
2017-10-25T02:55:56.068Z,35.67
2017-10-25T02:58:22.740Z,28.47
2017-10-25T03:00:49.435Z,27.47
2017-10-25T03:03:16.097Z,31.43
2017-10-25T03:05:42.748Z,28.20
2017-10-25T03:08:09.432Z,28.00
2017-10-25T03:10:36.078Z,33.33
2017-10-25T03:13:02.741Z,28.77
2017-10-25T03:15:29.404Z,30.63
2017-10-25T03:17:56.054Z,29.17
2017-10-25T03:20:22.990Z,41.53
2017-10-25T03:22:49.645Z,30.83
2017-10-25T03:25:16.301Z,27.07
2017-10-25T03:27:42.993Z,35.07
2017-10-25T03:30:09.667Z,34.73
2017-10-25T03:32:36.318Z,46.53
2017-10-25T03:35:02.988Z,44.97
2017-10-25T03:37:29.674Z,39.10
2017-10-25T03:39:56.343Z,40.30
2017-10-25T03:42:23.128Z,34.07
2017-10-25T03:44:49.817Z,29.77
2017-10-25T03:47:16.469Z,34.90
2017-10-25T03:49:43.143Z,30.93
2017-10-25T03:52:09.808Z,31.87
2017-10-25T03:54:36.473Z,40.07
2017-10-25T03:57:03.152Z,24.70
2017-10-25T03:59:29.800Z,23.67
2017-10-25T04:01:56.497Z,35.50
2017-10-25T04:04:23.141Z,34.33
2017-10-25T04:06:50.062Z,23.87
2017-10-25T04:09:16.734Z,30.00
2017-10-25T04:11:43.411Z,27.13
2017-10-25T04:14:10.059Z,30.07
2017-10-25T04:16:36.712Z,26.90
2017-10-25T04:19:03.390Z,25.00
2017-10-25T04:21:30.067Z,23.50
2017-10-25T04:23:56.749Z,24.53
2017-10-25T04:26:23.420Z,27.00
2017-10-25T04:28:50.098Z,57.03
2017-10-25T04:31:16.900Z,39.30
2017-10-25T04:33:43.544Z,41.70
2017-10-25T04:36:10.189Z,27.13
2017-10-25T04:38:36.866Z,31.73
2017-10-25T04:41:03.552Z,29.73
2017-10-25T04:43:30.210Z,28.07
2017-10-25T04:45:56.883Z,27.43
2017-10-25T04:48:23.568Z,27.77
2017-10-25T04:50:50.424Z,28.80
2017-10-25T04:53:17.077Z,33.20
2017-10-25T04:55:43.728Z,44.53
2017-10-25T04:58:10.404Z,45.17
2017-10-25T05:00:37.076Z,41.97
2017-10-25T05:03:03.742Z,42.70
2017-10-25T05:05:30.389Z,45.40
2017-10-25T05:07:57.046Z,37.53
2017-10-25T05:10:23.732Z,40.77
2017-10-25T05:12:50.385Z,56.67
2017-10-25T05:15:17.060Z,44.80
2017-10-25T05:17:43.731Z,36.63
2017-10-25T05:20:10.380Z,47.00
2017-10-25T05:22:37.020Z,31.97
2017-10-25T05:25:03.701Z,34.90
2017-10-25T05:27:30.353Z,36.93
2017-10-25T05:29:57.156Z,33.77
2017-10-25T05:32:23.803Z,32.73
2017-10-25T05:34:50.456Z,32.67
2017-10-25T05:37:17.129Z,34.30
2017-10-25T05:39:43.777Z,29.37
2017-10-25T05:42:10.457Z,40.33
2017-10-25T05:44:37.109Z,31.50
2017-10-25T05:47:03.768Z,109.37
2017-10-25T05:49:30.436Z,97.90
2017-10-25T05:51:57.075Z,36.97
2017-10-25T05:54:23.728Z,197.53
2017-10-25T05:56:50.401Z,120.77
2017-10-25T05:59:17.053Z,94.97
2017-10-25T06:01:43.732Z,40.23
2017-10-25T06:04:10.390Z,32.33
2017-10-25T06:06:37.069Z,32.17
2017-10-25T06:09:03.721Z,36.23
2017-10-25T06:11:30.400Z,37.60
2017-10-25T06:13:57.064Z,31.70
2017-10-25T06:16:23.721Z,40.23
2017-10-25T06:18:50.394Z,42.50
2017-10-25T06:21:17.039Z,37.73
2017-10-25T06:23:43.712Z,32.37
2017-10-25T06:26:10.359Z,34.30
2017-10-25T06:28:37.004Z,31.20
2017-10-25T06:31:03.674Z,30.20
2017-10-25T06:33:30.335Z,35.90
2017-10-25T06:35:57.010Z,33.87
2017-10-25T06:38:23.656Z,30.87
2017-10-25T06:40:50.329Z,30.10
2017-10-25T06:43:16.982Z,29.70
2017-10-25T06:45:43.628Z,34.77
2017-10-25T06:48:10.293Z,44.40
2017-10-25T06:50:36.945Z,31.83
2017-10-25T06:53:03.593Z,28.50
2017-10-25T06:55:30.264Z,33.27
2017-10-25T06:57:56.923Z,28.47
2017-10-25T07:00:24.214Z,31.43
2017-10-25T07:02:50.896Z,32.40
2017-10-25T07:05:17.540Z,36.23
2017-10-25T07:07:44.220Z,32.27
2017-10-25T07:10:10.877Z,31.13
2017-10-25T07:12:37.537Z,29.13
2017-10-25T07:15:04.489Z,30.57
2017-10-25T07:17:31.140Z,24.87
2017-10-25T07:19:57.795Z,24.53
2017-10-25T07:22:24.473Z,24.97
2017-10-25T07:24:51.132Z,23.00
2017-10-25T07:27:17.776Z,29.83
2017-10-25T07:29:44.441Z,28.10
2017-10-25T07:32:11.097Z,26.00
2017-10-25T07:34:37.764Z,26.23
2017-10-25T07:37:04.560Z,26.20
2017-10-25T07:39:31.213Z,25.60
2017-10-25T07:41:57.867Z,24.00
2017-10-25T07:44:24.544Z,25.60
2017-10-25T07:46:51.212Z,26.23
2017-10-25T07:49:17.865Z,28.20
2017-10-25T07:51:44.714Z,23.20
2017-10-25T07:54:11.377Z,22.50
2017-10-25T07:56:38.032Z,23.60
2017-10-25T07:59:04.701Z,23.70
2017-10-25T08:01:31.352Z,25.00
2017-10-25T08:03:58.024Z,23.10
2017-10-25T08:06:24.716Z,26.13
2017-10-25T08:08:51.365Z,20.87
2017-10-25T08:11:18.021Z,22.20
2017-10-25T08:13:44.692Z,21.00
2017-10-25T08:16:11.368Z,24.40
2017-10-25T08:18:38.016Z,30.70
2017-10-25T08:21:04.670Z,30.30
2017-10-25T08:23:31.351Z,22.57
2017-10-25T08:25:58.005Z,32.27
2017-10-25T08:28:24.660Z,21.17
2017-10-25T08:30:51.328Z,25.97
2017-10-25T08:33:17.980Z,24.07
2017-10-25T08:35:44.727Z,21.10
2017-10-25T08:38:11.325Z,23.47
2017-10-25T08:40:38.017Z,22.27
2017-10-25T08:43:04.686Z,23.20
2017-10-25T08:45:31.348Z,21.17
2017-10-25T08:47:58.017Z,21.73
2017-10-25T08:50:24.728Z,19.67
2017-10-25T08:52:51.356Z,22.93
2017-10-25T08:55:18.235Z,24.40
2017-10-25T08:57:44.889Z,23.57
2017-10-25T09:00:11.545Z,19.60
2017-10-25T09:02:38.235Z,26.23
2017-10-25T09:05:04.924Z,16.87
2017-10-25T09:07:31.574Z,22.20
2017-10-25T09:09:58.255Z,16.10
2017-10-25T09:12:24.901Z,31.03
2017-10-25T09:14:51.600Z,15.07
2017-10-25T09:17:18.252Z,14.67
2017-10-25T09:19:44.948Z,12.17
2017-10-25T09:22:11.642Z,13.10
2017-10-25T09:24:38.357Z,12.80
2017-10-25T09:27:05.059Z,13.93
2017-10-25T09:29:31.736Z,14.33
2017-10-25T09:31:58.392Z,14.27
2017-10-25T09:34:25.066Z,13.67
2017-10-25T09:36:51.760Z,14.60
2017-10-25T09:39:18.440Z,13.93
2017-10-25T09:41:45.121Z,12.00
2017-10-25T09:44:11.764Z,13.03
2017-10-25T09:46:38.447Z,10.33
2017-10-25T09:49:05.093Z,10.30
2017-10-25T09:51:31.770Z,8.40
2017-10-25T09:53:58.420Z,8.37
2017-10-25T09:56:25.089Z,6.53
2017-10-25T09:58:51.733Z,5.63
2017-10-25T10:01:18.383Z,6.67
2017-10-25T10:03:45.048Z,6.53
2017-10-25T10:06:11.692Z,6.47
2017-10-25T10:08:38.356Z,7.03
2017-10-25T10:11:04.996Z,7.50
2017-10-25T10:13:31.651Z,9.10
2017-10-25T10:15:58.328Z,4.30
2017-10-25T10:18:24.995Z,5.50
2017-10-25T10:20:51.657Z,4.63
2017-10-25T10:23:18.300Z,9.63
2017-10-25T10:25:44.979Z,3.17
2017-10-25T10:28:11.613Z,3.03
2017-10-25T10:30:38.269Z,3.57
2017-10-25T10:33:04.935Z,4.60
2017-10-25T10:35:31.584Z,5.60
2017-10-25T10:37:58.246Z,2.67
2017-10-25T10:40:24.911Z,3.67
2017-10-25T10:42:51.581Z,5.90
2017-10-25T10:45:18.252Z,3.47
2017-10-25T10:47:44.886Z,2.70
2017-10-25T10:50:11.554Z,4.23
2017-10-25T10:52:38.233Z,3.83
2017-10-25T10:55:04.874Z,3.83
2017-10-25T10:57:31.520Z,3.90
2017-10-25T10:59:58.193Z,2.50
2017-10-25T11:02:25.152Z,2.77
2017-10-25T11:04:51.785Z,3.07
2017-10-25T11:07:18.427Z,3.60
2017-10-25T11:09:45.100Z,2.70
2017-10-25T11:12:11.764Z,4.07
2017-10-25T11:14:38.411Z,11.93
2017-10-25T11:17:05.049Z,3.50
2017-10-25T11:19:32.123Z,3.07
2017-10-25T11:21:58.769Z,4.73
2017-10-25T11:24:25.403Z,2.47
2017-10-25T11:26:52.068Z,3.20
2017-10-25T11:29:18.709Z,3.03
2017-10-25T11:31:45.356Z,2.80
2017-10-25T11:34:12.025Z,5.00
2017-10-25T11:36:38.667Z,3.50
2017-10-25T11:39:05.338Z,6.00
2017-10-25T11:41:31.992Z,2.80
2017-10-25T11:43:58.675Z,2.77
2017-10-25T11:46:25.349Z,4.10
2017-10-25T11:48:52.008Z,3.17
2017-10-25T11:51:18.675Z,3.07
2017-10-25T11:53:45.317Z,3.70
2017-10-25T11:56:12.010Z,3.57
2017-10-25T11:58:38.671Z,3.00
2017-10-25T12:01:05.314Z,2.93
2017-10-25T12:03:31.984Z,3.60
2017-10-25T12:05:58.653Z,3.47
2017-10-25T12:08:25.347Z,5.20
2017-10-25T12:10:52.028Z,3.87
2017-10-25T12:13:18.664Z,4.87
2017-10-25T12:15:45.323Z,4.27
2017-10-25T12:18:11.968Z,4.20
2017-10-25T12:20:38.615Z,3.13
2017-10-25T12:23:05.279Z,3.30
2017-10-25T12:25:31.925Z,2.40
2017-10-25T12:27:58.590Z,2.90
2017-10-25T12:30:25.237Z,2.97
2017-10-25T12:32:51.895Z,2.97
2017-10-25T12:35:18.556Z,2.97
2017-10-25T12:37:45.238Z,3.00
2017-10-25T12:40:11.885Z,2.87
2017-10-25T12:42:38.549Z,2.80
2017-10-25T12:45:05.240Z,2.17
2017-10-25T12:47:31.929Z,2.43
2017-10-25T12:49:58.591Z,5.00
2017-10-25T12:52:25.239Z,3.00
2017-10-25T12:54:51.896Z,4.23
2017-10-25T12:57:18.573Z,2.37
2017-10-25T12:59:45.637Z,2.20
2017-10-25T13:02:12.330Z,17.60
2017-10-25T13:04:39.021Z,7.53
2017-10-25T13:07:06.488Z,2.30
2017-10-25T13:09:34.066Z,4.37
2017-10-25T13:12:03.083Z,2.23
2017-10-25T13:14:55.494Z,3.00
2017-10-25T13:17:41.336Z,2.23
2017-10-25T13:20:08.004Z,1.90
2017-10-25T13:22:34.660Z,2.23
2017-10-25T13:25:01.378Z,5.90
2017-10-25T13:27:28.044Z,5.23
2017-10-25T13:29:54.800Z,1.83
2017-10-25T13:32:21.468Z,2.20
2017-10-25T13:34:48.112Z,1.53
2017-10-25T13:37:14.758Z,1.30
2017-10-25T13:39:41.436Z,1.47
2017-10-25T13:42:08.068Z,2.00
2017-10-25T13:44:34.736Z,1.70
2017-10-25T13:47:01.457Z,1.70
2017-10-25T13:49:28.144Z,2.50
2017-10-25T13:51:54.795Z,1.50
2017-10-25T13:54:21.472Z,1.30
2017-10-25T13:56:48.141Z,2.70
2017-10-25T13:59:14.783Z,2.10
2017-10-25T14:01:41.454Z,1.53
2017-10-25T14:04:08.104Z,2.87
2017-10-25T14:06:34.792Z,2.93
2017-10-25T14:09:01.442Z,1.73
2017-10-25T14:11:28.189Z,2.40
2017-10-25T14:13:54.853Z,2.03
2017-10-25T14:16:21.520Z,1.80
2017-10-25T14:18:48.169Z,1.83
2017-10-25T14:21:14.816Z,2.27
2017-10-25T14:23:41.495Z,6.40
2017-10-25T14:26:08.135Z,2.37
2017-10-25T14:28:50.589Z,2.80
2017-10-25T14:31:17.251Z,2.90
2017-10-25T14:33:43.908Z,6.10
2017-10-25T14:36:10.569Z,1.80
2017-10-25T14:38:37.212Z,1.80
2017-10-25T14:41:03.876Z,2.70
2017-10-25T14:43:30.519Z,3.57
2017-10-25T14:45:57.184Z,3.23
2017-10-25T14:48:23.825Z,4.40
2017-10-25T14:50:50.473Z,2.10
2017-10-25T14:53:17.138Z,1.53
2017-10-25T14:55:43.785Z,2.00
2017-10-25T14:58:10.469Z,1.70
2017-10-25T15:00:37.116Z,3.03
2017-10-25T15:03:03.762Z,1.80
2017-10-25T15:05:30.432Z,2.07
2017-10-25T15:07:57.108Z,2.63
2017-10-25T15:10:23.773Z,1.33
2017-10-25T15:12:50.443Z,1.40
2017-10-25T15:15:18.029Z,4.20
2017-10-25T15:17:44.672Z,1.70
2017-10-25T15:20:11.337Z,1.20
2017-10-25T15:22:37.987Z,2.00
2017-10-25T15:25:04.656Z,3.50
2017-10-25T15:27:31.302Z,1.17
2017-10-25T15:29:57.945Z,4.13
2017-10-25T15:32:24.618Z,1.57
2017-10-25T15:34:51.265Z,4.60
2017-10-25T15:37:17.965Z,1.80
2017-10-25T15:39:44.611Z,3.03
2017-10-25T15:42:11.253Z,2.10
2017-10-25T15:44:37.921Z,9.03
2017-10-25T15:47:04.558Z,2.90
2017-10-25T15:49:31.225Z,9.57
2017-10-25T15:51:57.865Z,1.43
2017-10-25T15:54:24.508Z,3.77
2017-10-25T15:56:51.201Z,2.60
2017-10-25T15:59:17.849Z,5.20
2017-10-25T16:01:44.509Z,1.83
2017-10-25T16:04:11.152Z,2.40
2017-10-25T16:06:37.818Z,3.00
2017-10-25T16:09:04.480Z,16.80
2017-10-25T16:11:31.200Z,3.43
2017-10-25T16:13:57.846Z,3.23
2017-10-25T16:16:24.496Z,1.90
2017-10-25T16:18:51.161Z,2.03
2017-10-25T16:21:17.804Z,2.17
2017-10-25T16:23:44.533Z,3.13
2017-10-25T16:26:11.186Z,2.70
2017-10-25T16:28:37.985Z,2.70
2017-10-25T16:31:04.630Z,4.23
2017-10-25T16:33:31.286Z,3.00
2017-10-25T16:35:57.956Z,2.83
2017-10-25T16:38:24.651Z,5.20
2017-10-25T16:40:51.316Z,4.73
2017-10-25T16:43:17.993Z,4.30
2017-10-25T16:45:44.628Z,4.37
2017-10-25T16:48:11.292Z,5.33
2017-10-25T16:50:38.005Z,6.23
2017-10-25T16:53:04.648Z,4.77
2017-10-25T16:55:31.318Z,8.50
2017-10-25T16:57:57.972Z,15.10
2017-10-25T17:00:24.728Z,6.37
2017-10-25T17:02:51.374Z,5.33
2017-10-25T17:05:18.112Z,5.23
2017-10-25T17:07:44.753Z,3.70
2017-10-25T17:10:11.412Z,4.50
2017-10-25T17:12:38.056Z,8.00
2017-10-25T17:15:04.993Z,4.97
2017-10-25T17:17:31.659Z,3.97
2017-10-25T17:19:58.296Z,4.37
2017-10-25T17:22:24.973Z,18.70
2017-10-25T17:24:51.692Z,7.10
2017-10-25T17:27:18.342Z,11.57
2017-10-25T17:29:45.021Z,7.20
2017-10-25T17:32:11.892Z,6.63
2017-10-25T17:34:38.888Z,8.40
2017-10-25T17:37:07.488Z,11.10
2017-10-25T17:39:35.684Z,13.97
2017-10-25T17:42:02.949Z,12.40
2017-10-25T17:44:29.653Z,17.20
2017-10-25T17:46:56.304Z,11.93
2017-10-25T17:49:22.981Z,29.90
2017-10-25T17:51:49.637Z,31.03
2017-10-25T17:54:16.294Z,22.77
2017-10-25T17:56:42.975Z,33.03
2017-10-25T17:59:09.621Z,24.53
2017-10-25T18:01:36.296Z,9.20
2017-10-25T18:04:02.946Z,10.90
2017-10-25T18:06:29.615Z,15.73
2017-10-25T18:08:56.891Z,18.48
2017-10-25T18:11:23.540Z,10.10
2017-10-25T18:13:50.410Z,10.93
2017-10-25T18:16:17.124Z,15.70
2017-10-25T18:18:43.776Z,8.20
2017-10-25T18:21:10.422Z,9.27
2017-10-25T18:23:37.092Z,14.33
2017-10-25T18:26:03.844Z,10.40
2017-10-25T18:28:30.532Z,15.43
2017-10-25T18:30:57.214Z,8.97
2017-10-25T18:33:23.867Z,8.23
2017-10-25T18:35:50.549Z,23.77
2017-10-25T18:38:17.308Z,11.20
2017-10-25T18:40:43.952Z,8.50
2017-10-25T18:43:10.598Z,10.90
2017-10-25T18:45:37.550Z,20.10
2017-10-25T18:48:04.278Z,14.17
2017-10-25T18:50:30.929Z,8.10
2017-10-25T18:52:57.580Z,16.87
2017-10-25T18:55:24.237Z,10.23
2017-10-25T18:57:50.912Z,12.57
2017-10-25T19:00:17.562Z,13.80
2017-10-25T19:02:44.440Z,21.77
2017-10-25T19:05:11.394Z,16.40
2017-10-25T19:07:38.092Z,20.90
2017-10-25T19:10:04.820Z,12.20
2017-10-25T19:12:31.481Z,9.53
2017-10-25T19:14:58.156Z,11.50
2017-10-25T19:17:25.009Z,8.67
2017-10-25T19:19:51.769Z,10.67
2017-10-25T19:22:18.426Z,10.23
2017-10-25T19:24:45.113Z,7.60
2017-10-25T19:27:11.767Z,9.27
2017-10-25T19:29:38.494Z,8.00
2017-10-25T19:32:05.136Z,7.83
2017-10-25T19:34:31.825Z,13.60
2017-10-25T19:36:58.849Z,7.77
2017-10-25T19:39:25.492Z,8.50
2017-10-25T19:41:52.149Z,6.43
2017-10-25T19:44:18.833Z,11.77
2017-10-25T19:46:45.513Z,12.77
2017-10-25T19:49:12.284Z,17.90
2017-10-25T19:51:38.932Z,16.17
2017-10-25T19:54:05.616Z,21.00
2017-10-25T19:56:32.280Z,14.10
2017-10-25T19:58:58.948Z,9.73
2017-10-25T20:08:07.984Z,20.93
2017-10-25T20:10:34.745Z,13.97
2017-10-25T20:13:01.390Z,11.60
2017-10-25T20:15:28.069Z,12.67
2017-10-25T20:17:54.979Z,31.87
2017-10-25T20:20:21.654Z,21.13
2017-10-25T20:22:48.303Z,19.23
2017-10-25T20:25:14.983Z,14.80
2017-10-25T20:27:41.653Z,21.73
2017-10-25T20:30:08.309Z,24.63
2017-10-25T20:32:34.963Z,20.03
2017-10-25T20:35:01.769Z,30.53
2017-10-25T20:37:28.416Z,20.20
2017-10-25T20:39:55.063Z,17.63
2017-10-25T20:42:21.730Z,33.40
2017-10-25T20:44:48.401Z,30.43
2017-10-25T20:47:15.064Z,39.90
2017-10-25T20:49:41.749Z,22.70
2017-10-25T20:52:08.425Z,28.63
2017-10-25T20:54:35.099Z,29.23
2017-10-25T20:57:01.746Z,28.50
2017-10-25T20:59:28.390Z,20.93
2017-10-25T21:01:55.064Z,15.67
2017-10-25T21:04:21.724Z,39.20
2017-10-25T21:06:48.372Z,37.13
2017-10-25T21:09:15.045Z,32.83
2017-10-25T21:11:41.692Z,40.50
2017-10-25T21:14:08.340Z,27.13
2017-10-25T21:16:35.011Z,24.33
2017-10-25T21:19:01.660Z,18.03
2017-10-25T21:21:28.844Z,31.13
2017-10-25T21:23:55.495Z,22.10
2017-10-25T21:26:22.145Z,24.90
2017-10-25T21:28:48.816Z,21.27
2017-10-25T21:31:15.485Z,17.33
2017-10-25T21:33:42.136Z,25.80
2017-10-25T21:36:08.812Z,23.50
2017-10-25T21:38:35.484Z,16.47
2017-10-25T21:41:02.136Z,19.43
2017-10-25T21:43:28.810Z,22.47
2017-10-25T21:45:55.455Z,25.10
2017-10-25T21:48:22.121Z,26.47
2017-10-25T21:50:48.777Z,21.47
2017-10-25T21:53:15.428Z,26.60
2017-10-25T21:55:42.104Z,28.50
2017-10-25T21:58:08.782Z,45.37
2017-10-25T22:00:35.834Z,24.03
2017-10-25T22:03:02.492Z,27.33
2017-10-25T22:05:29.139Z,29.60
2017-10-25T22:07:55.808Z,24.57
2017-10-25T22:10:22.457Z,46.57
2017-10-25T22:12:49.125Z,24.90
2017-10-25T22:15:15.783Z,34.40
2017-10-25T22:17:42.460Z,20.13
2017-10-25T22:20:09.118Z,19.60
2017-10-25T22:22:35.768Z,26.83
2017-10-25T22:25:02.449Z,23.97
2017-10-25T22:27:29.124Z,22.50
2017-10-25T22:29:55.809Z,27.00
2017-10-25T22:32:22.504Z,24.47
2017-10-25T22:34:49.154Z,31.73
2017-10-25T22:37:15.824Z,37.67
2017-10-25T22:39:42.495Z,29.73
2017-10-25T22:42:09.141Z,31.90
2017-10-25T22:44:35.848Z,29.67
2017-10-25T22:47:02.503Z,27.33
2017-10-25T22:49:29.172Z,19.97
2017-10-25T22:51:55.885Z,16.60
2017-10-25T22:54:22.539Z,29.37
2017-10-25T22:56:49.209Z,21.53
2017-10-25T22:59:15.884Z,41.43
2017-10-25T23:01:42.558Z,27.17
2017-10-25T23:04:09.209Z,38.10
2017-10-25T23:06:35.884Z,26.50
2017-10-25T23:09:02.593Z,22.67
2017-10-25T23:11:29.260Z,25.53
2017-10-25T23:13:55.908Z,20.70
2017-10-25T23:16:22.592Z,19.13
2017-10-25T23:18:49.257Z,23.73
2017-10-25T23:21:16.319Z,23.77
2017-10-25T23:23:42.995Z,26.20
2017-10-25T23:26:09.651Z,22.13
2017-10-25T23:28:36.330Z,21.60
2017-10-25T23:31:02.979Z,22.87
2017-10-25T23:33:29.668Z,24.37
2017-10-25T23:35:56.316Z,22.20
2017-10-25T23:38:22.967Z,22.17
2017-10-25T23:40:49.640Z,37.07
2017-10-25T23:43:16.277Z,17.80
2017-10-25T23:45:42.950Z,17.40
2017-10-25T23:48:09.603Z,17.57
2017-10-25T23:50:36.277Z,25.50
2017-10-25T23:53:02.929Z,22.27
2017-10-25T23:55:29.605Z,25.73
2017-10-25T23:57:56.249Z,25.57
